createdAt,value
2022-07-30T00:01:39.753Z,19.80
2022-07-30T00:04:11.602Z,19.80
2022-07-30T00:06:45.154Z,19.80
2022-07-30T00:09:16.862Z,19.80
2022-07-30T00:11:49.593Z,19.80
2022-07-30T00:14:22.251Z,19.70
2022-07-30T00:16:54.786Z,19.80
2022-07-30T00:19:29.339Z,19.90
2022-07-30T00:22:01.925Z,19.80
2022-07-30T00:24:34.561Z,19.80
2022-07-30T00:27:06.951Z,19.60
2022-07-30T00:29:44.936Z,19.60
2022-07-30T00:32:17.311Z,19.70
2022-07-30T00:34:49.548Z,19.60
2022-07-30T00:37:21.978Z,19.60
2022-07-30T00:39:54.595Z,19.50
2022-07-30T00:42:38.051Z,19.40
2022-07-30T00:45:11.715Z,19.40
2022-07-30T00:47:43.911Z,19.30
2022-07-30T00:50:17.001Z,20.70
2022-07-30T00:52:48.895Z,19.30
2022-07-30T00:55:21.496Z,19.30
2022-07-30T00:57:53.243Z,19.30
2022-07-30T01:00:27.513Z,19.20
2022-07-30T01:02:59.315Z,19.20
2022-07-30T01:05:32.083Z,19.00
2022-07-30T01:08:04.320Z,19.10
2022-07-30T01:10:36.197Z,19.00
2022-07-30T01:13:08.873Z,18.80
2022-07-30T01:15:41.391Z,18.70
2022-07-30T01:18:16.429Z,18.70
2022-07-30T01:21:09.527Z,18.70
2022-07-30T01:23:45.944Z,18.90
2022-07-30T01:26:20.454Z,18.90
2022-07-30T01:28:56.295Z,18.80
2022-07-30T01:31:30.029Z,18.70
2022-07-30T01:34:03.090Z,18.80
2022-07-30T01:36:36.726Z,19.60
2022-07-30T01:39:09.546Z,18.90
2022-07-30T01:41:43.694Z,19.20
2022-07-30T01:44:23.955Z,18.80
2022-07-30T01:46:58.776Z,18.70
2022-07-30T01:49:32.330Z,19.20
2022-07-30T01:52:06.027Z,18.30
2022-07-30T01:54:39.372Z,18.30
2022-07-30T01:57:13.436Z,18.20
2022-07-30T01:59:50.255Z,18.20
2022-07-30T02:02:26.746Z,18.40
2022-07-30T02:04:59.562Z,18.10
2022-07-30T02:07:57.394Z,18.20
2022-07-30T02:10:42.031Z,18.30
2022-07-30T02:13:27.383Z,18.40
2022-07-30T02:16:08.468Z,18.20
2022-07-30T02:19:04.512Z,18.20
2022-07-30T02:21:50.518Z,18.30
2022-07-30T02:24:28.387Z,18.30
2022-07-30T02:27:05.267Z,18.50
2022-07-30T02:29:38.485Z,19.90
2022-07-30T02:32:14.917Z,20.80
2022-07-30T02:34:53.763Z,18.40
2022-07-30T02:37:43.023Z,18.50
2022-07-30T02:40:20.194Z,18.50
2022-07-30T02:42:53.110Z,18.40
2022-07-30T02:45:31.019Z,18.30
2022-07-30T02:48:08.974Z,18.40
2022-07-30T02:50:44.525Z,18.30
2022-07-30T02:53:18.108Z,18.20
2022-07-30T02:55:54.429Z,18.40
2022-07-30T02:58:28.074Z,18.10
2022-07-30T03:01:03.235Z,17.80
2022-07-30T03:03:36.411Z,18.20
2022-07-30T03:06:10.641Z,18.00
2022-07-30T03:08:44.646Z,19.30
2022-07-30T03:11:21.047Z,18.10
2022-07-30T03:13:52.977Z,18.10
2022-07-30T03:16:26.927Z,18.20
2022-07-30T03:19:06.655Z,18.20
2022-07-30T03:21:41.741Z,18.20
2022-07-30T03:24:14.660Z,18.10
2022-07-30T03:26:48.590Z,18.20
2022-07-30T03:29:24.555Z,19.70
2022-07-30T03:31:58.756Z,18.70
2022-07-30T03:34:36.252Z,18.30
2022-07-30T03:37:09.229Z,18.30
2022-07-30T03:39:42.228Z,18.20
2022-07-30T03:42:16.331Z,18.20
2022-07-30T03:44:50.464Z,18.20
2022-07-30T03:47:23.642Z,19.70
2022-07-30T03:49:57.114Z,18.50
2022-07-30T03:52:30.060Z,18.50
2022-07-30T03:55:03.718Z,18.40
2022-07-30T03:57:42.939Z,19.60
2022-07-30T04:00:15.973Z,18.40
2022-07-30T04:02:58.250Z,18.60
2022-07-30T04:05:41.417Z,18.60
2022-07-30T04:08:17.313Z,18.60
2022-07-30T04:10:51.407Z,18.70
2022-07-30T04:13:48.570Z,19.70
2022-07-30T04:16:47.067Z,18.70
2022-07-30T04:19:28.738Z,18.30
2022-07-30T04:22:02.039Z,18.40
2022-07-30T04:24:38.772Z,19.90
2022-07-30T04:27:11.693Z,18.60
2022-07-30T04:29:44.305Z,18.60
2022-07-30T04:32:17.654Z,18.40
2022-07-30T04:34:54.473Z,18.50
2022-07-30T04:37:47.070Z,18.40
2022-07-30T04:40:18.850Z,17.80
2022-07-30T04:42:51.833Z,18.00
2022-07-30T04:45:24.019Z,17.90
2022-07-30T04:48:02.731Z,17.70
2022-07-30T04:50:55.475Z,18.50
2022-07-30T04:53:29.813Z,18.00
2022-07-30T04:56:06.826Z,17.80
2022-07-30T04:58:41.315Z,19.00
2022-07-30T05:01:35.936Z,18.10
2022-07-30T05:04:14.011Z,18.00
2022-07-30T05:06:47.993Z,18.90
2022-07-30T05:09:21.208Z,18.80
2022-07-30T05:11:54.423Z,18.20
2022-07-30T05:14:27.526Z,18.20
2022-07-30T05:16:59.966Z,18.20
2022-07-30T05:19:34.077Z,19.60
2022-07-30T05:22:06.848Z,18.30
2022-07-30T05:24:40.281Z,18.10
2022-07-30T05:27:13.185Z,20.00
2022-07-30T05:29:44.966Z,18.50
2022-07-30T05:32:25.637Z,18.50
2022-07-30T05:34:59.303Z,18.40
2022-07-30T05:37:35.335Z,18.50
2022-07-30T05:40:08.109Z,19.30
2022-07-30T05:43:01.641Z,18.70
2022-07-30T05:45:34.506Z,19.00
2022-07-30T05:48:07.379Z,19.10
2022-07-30T05:50:39.262Z,19.10
2022-07-30T05:53:11.891Z,19.10
2022-07-30T05:56:16.248Z,19.20
2022-07-30T05:59:00.190Z,19.90
2022-07-30T06:01:54.924Z,19.30
2022-07-30T06:04:35.831Z,20.50
2022-07-30T06:07:10.115Z,20.60
2022-07-30T06:09:42.786Z,19.40
2022-07-30T06:12:15.551Z,19.60
2022-07-30T06:14:48.563Z,19.90
2022-07-30T06:17:27.895Z,19.90
2022-07-30T06:20:17.091Z,19.80
2022-07-30T06:23:06.023Z,19.80
2022-07-30T06:25:53.664Z,19.90
2022-07-30T06:28:37.632Z,21.00
2022-07-30T06:31:19.848Z,20.50
2022-07-30T06:33:52.295Z,20.10
2022-07-30T06:36:24.862Z,20.50
2022-07-30T06:39:04.632Z,20.30
2022-07-30T06:41:59.141Z,20.40
2022-07-30T06:44:54.541Z,20.80
2022-07-30T06:47:31.649Z,20.40
2022-07-30T06:50:04.847Z,21.00
2022-07-30T06:52:37.701Z,20.60
2022-07-30T06:55:10.253Z,20.80
2022-07-30T06:57:50.185Z,21.00
2022-07-30T07:00:43.346Z,21.40
2022-07-30T07:03:17.775Z,22.50
2022-07-30T07:05:50.678Z,24.60
2022-07-30T07:08:22.501Z,26.40
2022-07-30T07:11:00.643Z,27.00
2022-07-30T07:13:38.203Z,27.00
2022-07-30T07:16:14.534Z,26.70
2022-07-30T07:18:51.063Z,27.30
2022-07-30T07:21:23.898Z,27.50
2022-07-30T07:24:00.920Z,28.30
2022-07-30T07:26:52.647Z,29.40
2022-07-30T07:29:25.889Z,29.20
2022-07-30T07:32:06.001Z,30.00
2022-07-30T07:34:42.747Z,31.00
2022-07-30T07:37:16.491Z,29.40
2022-07-30T07:39:48.362Z,28.90
2022-07-30T07:45:15.992Z,29.90
2022-07-30T07:48:05.537Z,29.20
2022-07-30T07:51:00.379Z,30.10
2022-07-30T07:53:35.592Z,29.90
2022-07-30T07:56:10.157Z,30.10
2022-07-30T07:58:44.087Z,29.60
2022-07-30T08:01:18.241Z,29.80
2022-07-30T08:04:26.074Z,29.10
2022-07-30T08:07:15.755Z,29.20
2022-07-30T08:10:17.195Z,30.20
2022-07-30T08:13:48.587Z,29.60
2022-07-30T08:16:21.981Z,30.80
2022-07-30T08:19:23.449Z,30.50
2022-07-30T08:22:08.398Z,29.40
2022-07-30T08:24:41.217Z,28.40
2022-07-30T08:27:13.751Z,29.20
2022-07-30T08:29:45.866Z,30.20
2022-07-30T08:32:18.627Z,31.50
2022-07-30T08:34:52.010Z,32.20
2022-07-30T08:37:26.677Z,30.50
2022-07-30T08:39:59.745Z,30.30
2022-07-30T08:42:34.834Z,31.70
2022-07-30T08:45:08.930Z,31.70
2022-07-30T08:47:43.111Z,32.00
2022-07-30T08:50:16.741Z,32.20
2022-07-30T08:53:09.489Z,31.30
2022-07-30T08:55:43.393Z,31.80
2022-07-30T08:58:37.821Z,32.90
2022-07-30T09:01:10.760Z,31.90
2022-07-30T09:03:44.101Z,31.30
2022-07-30T09:06:17.458Z,31.80
2022-07-30T09:08:49.557Z,31.00
2022-07-30T09:11:23.323Z,32.10
2022-07-30T09:14:08.659Z,32.80
2022-07-30T09:16:42.226Z,32.60
2022-07-30T09:19:20.674Z,33.60
2022-07-30T09:22:01.153Z,33.20
2022-07-30T09:24:58.809Z,32.10
2022-07-30T09:27:51.088Z,31.20
2022-07-30T09:30:53.862Z,30.40
2022-07-30T09:33:49.845Z,30.80
2022-07-30T09:36:41.116Z,28.90
2022-07-30T09:39:37.666Z,29.10
2022-07-30T09:42:23.761Z,30.00
2022-07-30T09:45:07.931Z,31.60
2022-07-30T09:47:45.438Z,30.60
2022-07-30T09:50:30.362Z,31.50
2022-07-30T09:53:11.929Z,31.60
2022-07-30T09:55:47.531Z,31.60
2022-07-30T09:58:26.571Z,31.70
2022-07-30T10:01:02.492Z,31.90
2022-07-30T10:03:53.870Z,32.80
2022-07-30T10:06:48.146Z,33.40
2022-07-30T10:09:37.103Z,32.70
2022-07-30T10:12:11.923Z,32.20
2022-07-30T10:14:49.968Z,32.10
2022-07-30T10:17:23.907Z,32.00
2022-07-30T10:20:30.850Z,32.30
2022-07-30T10:23:32.908Z,32.70
2022-07-30T10:26:32.730Z,32.30
2022-07-30T10:29:33.757Z,31.70
2022-07-30T10:32:06.771Z,32.20
2022-07-30T10:34:43.999Z,32.20
2022-07-30T10:37:16.948Z,32.40
2022-07-30T10:40:05.332Z,32.10
2022-07-30T10:42:57.780Z,32.10
2022-07-30T10:45:56.557Z,32.00
2022-07-30T10:48:32.165Z,31.70
2022-07-30T10:51:04.246Z,31.60
2022-07-30T10:53:41.552Z,32.20
2022-07-30T10:56:25.454Z,32.50
2022-07-30T10:59:10.871Z,32.20
2022-07-30T11:01:53.539Z,32.20
2022-07-30T11:04:29.623Z,31.70
2022-07-30T11:07:23.885Z,30.90
2022-07-30T11:10:08.868Z,31.20
2022-07-30T11:12:42.118Z,31.10
2022-07-30T11:15:19.183Z,31.60
2022-07-30T11:18:01.618Z,30.90
2022-07-30T11:20:33.979Z,30.80
2022-07-30T11:23:35.693Z,30.50
2022-07-30T11:26:07.872Z,30.00
2022-07-30T11:28:49.287Z,29.90
2022-07-30T11:31:54.948Z,29.90
2022-07-30T11:34:28.358Z,29.80
2022-07-30T11:37:22.339Z,31.60
2022-07-30T11:40:04.619Z,31.70
2022-07-30T11:42:37.767Z,30.50
2022-07-30T11:45:15.717Z,30.00
2022-07-30T11:47:54.209Z,30.40
2022-07-30T11:50:32.422Z,32.10
2022-07-30T11:53:07.797Z,30.40
2022-07-30T11:55:45.777Z,30.40
2022-07-30T11:58:36.047Z,31.10
2022-07-30T12:01:16.921Z,31.30
2022-07-30T12:03:48.860Z,31.30
2022-07-30T12:06:21.735Z,31.10
2022-07-30T12:08:58.469Z,31.30
2022-07-30T12:11:35.463Z,30.80
2022-07-30T12:14:07.606Z,30.50
2022-07-30T12:16:42.975Z,30.50
2022-07-30T12:19:14.897Z,29.80
2022-07-30T12:21:52.495Z,29.80
2022-07-30T12:24:27.131Z,31.50
2022-07-30T12:27:08.859Z,30.60
2022-07-30T12:29:42.281Z,31.60
2022-07-30T12:32:14.582Z,30.50
2022-07-30T12:34:56.801Z,29.90
2022-07-30T12:37:29.652Z,30.40
2022-07-30T12:40:15.112Z,30.60
2022-07-30T12:42:54.201Z,31.00
2022-07-30T12:45:52.037Z,29.90
2022-07-30T12:48:24.760Z,29.90
2022-07-30T12:51:07.483Z,30.40
2022-07-30T12:53:40.320Z,30.20
2022-07-30T12:56:20.545Z,30.10
2022-07-30T12:58:54.404Z,29.80
2022-07-30T13:01:43.838Z,29.60
2022-07-30T13:04:17.532Z,29.50
2022-07-30T13:07:12.525Z,29.60
2022-07-30T13:09:45.203Z,29.40
2022-07-30T13:12:18.460Z,29.30
2022-07-30T13:14:51.193Z,29.80
2022-07-30T13:17:23.329Z,30.60
2022-07-30T13:19:56.247Z,31.30
2022-07-30T13:22:28.670Z,31.30
2022-07-30T13:25:01.137Z,30.80
2022-07-30T13:27:33.950Z,30.70
2022-07-30T13:30:07.108Z,30.50
2022-07-30T13:32:40.015Z,30.40
2022-07-30T13:35:11.872Z,30.00
2022-07-30T13:37:44.537Z,30.00
2022-07-30T13:40:16.389Z,28.80
2022-07-30T13:42:49.056Z,30.80
2022-07-30T13:45:21.535Z,30.40
2022-07-30T13:47:53.392Z,30.50
2022-07-30T13:50:26.170Z,30.30
2022-07-30T13:53:02.096Z,31.20
2022-07-30T13:55:35.863Z,30.50
2022-07-30T13:58:08.220Z,31.00
2022-07-30T14:00:40.888Z,29.90
2022-07-30T14:03:13.651Z,30.20
2022-07-30T14:05:45.742Z,30.70
2022-07-30T14:08:18.658Z,30.20
2022-07-30T14:10:50.938Z,30.20
2022-07-30T14:13:22.762Z,31.00
2022-07-30T14:15:55.153Z,30.90
2022-07-30T14:18:27.483Z,30.90
2022-07-30T14:21:00.183Z,31.00
2022-07-30T14:23:32.877Z,30.90
2022-07-30T14:26:04.859Z,30.80
2022-07-30T14:28:37.526Z,30.50
2022-07-30T14:31:09.336Z,30.10
2022-07-30T14:33:42.415Z,29.70
2022-07-30T14:36:15.334Z,29.70
2022-07-30T14:38:47.622Z,29.40
2022-07-30T14:41:19.472Z,29.30
2022-07-30T14:43:52.469Z,29.80
2022-07-30T14:46:24.344Z,29.40
2022-07-30T14:51:34.639Z,28.90
2022-07-30T14:54:08.262Z,28.90
2022-07-30T14:56:40.644Z,29.20
2022-07-30T14:59:13.638Z,30.40
2022-07-30T15:01:47.471Z,29.50
2022-07-30T15:04:21.111Z,28.80
2022-07-30T15:06:53.099Z,28.80
2022-07-30T15:09:25.920Z,28.90
2022-07-30T15:12:08.858Z,28.80
2022-07-30T15:14:43.729Z,29.40
2022-07-30T15:17:16.883Z,29.60
2022-07-30T15:19:51.053Z,30.90
2022-07-30T15:22:23.583Z,30.40
2022-07-30T15:24:56.339Z,30.30
2022-07-30T15:27:34.013Z,31.10
2022-07-30T15:30:07.063Z,30.30
2022-07-30T15:32:38.971Z,30.10
2022-07-30T15:35:14.041Z,29.80
2022-07-30T15:37:46.598Z,30.50
2022-07-30T15:40:18.956Z,29.40
2022-07-30T15:42:51.922Z,29.40
2022-07-30T15:45:25.158Z,29.30
2022-07-30T15:47:57.167Z,29.10
2022-07-30T15:50:30.076Z,29.60
2022-07-30T15:53:07.986Z,30.10
2022-07-30T15:55:47.047Z,31.50
2022-07-30T15:58:20.207Z,29.50
2022-07-30T16:00:52.438Z,32.50
2022-07-30T16:03:25.223Z,30.80
2022-07-30T16:05:57.617Z,30.90
2022-07-30T16:08:29.459Z,29.80
2022-07-30T16:11:04.839Z,29.60
2022-07-30T16:13:38.119Z,29.60
2022-07-30T16:16:10.088Z,30.30
2022-07-30T16:18:42.873Z,29.70
2022-07-30T16:21:15.636Z,29.90
2022-07-30T16:23:47.946Z,29.50
2022-07-30T16:26:20.784Z,29.50
2022-07-30T16:28:53.626Z,31.10
2022-07-30T16:31:25.641Z,28.90
2022-07-30T16:33:58.504Z,28.60
2022-07-30T16:36:30.449Z,30.50
2022-07-30T16:39:03.551Z,28.40
2022-07-30T16:41:35.535Z,28.00
2022-07-30T16:44:08.364Z,29.00
2022-07-30T16:46:40.833Z,28.30
2022-07-30T16:49:13.166Z,28.50
2022-07-30T16:51:45.195Z,28.90
2022-07-30T16:54:17.871Z,30.80
2022-07-30T16:56:52.721Z,29.30
2022-07-30T16:59:25.523Z,29.50
2022-07-30T17:01:57.865Z,30.50
2022-07-30T17:04:29.746Z,29.60
2022-07-30T17:07:02.613Z,29.30
2022-07-30T17:09:36.597Z,29.20
2022-07-30T17:12:12.411Z,29.60
2022-07-30T17:14:45.461Z,29.00
2022-07-30T17:17:18.120Z,28.90
2022-07-30T17:19:50.005Z,30.70
2022-07-30T17:22:24.093Z,28.30
2022-07-30T17:24:56.012Z,29.70
2022-07-30T17:27:29.134Z,28.40
2022-07-30T17:30:01.850Z,28.50
2022-07-30T17:32:34.606Z,28.40
2022-07-30T17:35:09.824Z,29.60
2022-07-30T17:37:45.437Z,28.60
2022-07-30T17:40:28.843Z,29.00
2022-07-30T17:43:04.527Z,30.60
2022-07-30T17:45:37.052Z,28.60
2022-07-30T17:48:10.029Z,28.60
2022-07-30T17:50:42.560Z,28.50
2022-07-30T17:53:14.617Z,28.70
2022-07-30T17:55:57.379Z,28.50
2022-07-30T17:58:30.669Z,28.50
2022-07-30T18:01:04.478Z,28.30
2022-07-30T18:03:36.392Z,28.40
2022-07-30T18:06:18.336Z,29.10
2022-07-30T18:11:23.809Z,28.20
2022-07-30T18:13:57.200Z,29.30
2022-07-30T18:16:29.249Z,28.70
2022-07-30T18:19:01.901Z,29.40
2022-07-30T18:21:33.766Z,27.90
2022-07-30T18:24:06.901Z,27.40
2022-07-30T18:26:40.101Z,27.80
2022-07-30T18:29:14.141Z,27.80
2022-07-30T18:31:46.148Z,27.60
2022-07-30T18:34:18.896Z,30.60
2022-07-30T18:36:51.367Z,29.40
2022-07-30T18:39:24.250Z,27.40
2022-07-30T18:41:56.142Z,27.40
2022-07-30T18:44:28.859Z,27.30
2022-07-30T18:47:01.486Z,27.20
2022-07-30T18:49:37.203Z,29.30
2022-07-30T18:52:10.474Z,27.10
2022-07-30T18:54:43.012Z,28.10
2022-07-30T18:57:15.801Z,26.90
2022-07-30T18:59:47.820Z,26.80
2022-07-30T19:02:20.654Z,26.60
2022-07-30T19:04:53.912Z,26.40
2022-07-30T19:07:26.093Z,27.50
2022-07-30T19:09:59.021Z,26.10
2022-07-30T19:12:32.595Z,26.00
2022-07-30T19:15:06.022Z,25.70
2022-07-30T19:17:46.390Z,25.70
2022-07-30T19:20:19.959Z,25.60
2022-07-30T19:23:04.377Z,25.40
2022-07-30T19:25:36.991Z,26.50
2022-07-30T19:28:11.594Z,25.10
2022-07-30T19:30:44.449Z,25.00
2022-07-30T19:33:16.386Z,24.90
2022-07-30T19:35:49.203Z,25.10
2022-07-30T19:38:23.927Z,24.80
2022-07-30T19:40:56.174Z,24.70
2022-07-30T19:43:29.099Z,25.60
2022-07-30T19:46:05.684Z,27.00
2022-07-30T20:04:24.329Z,23.60
2022-07-30T20:12:05.243Z,23.50
2022-07-30T20:19:50.407Z,23.40
2022-07-30T20:24:57.777Z,23.30
2022-07-30T20:43:05.771Z,22.80
2022-07-30T20:48:17.322Z,22.60
2022-07-30T20:58:45.938Z,22.30
2022-07-30T21:01:20.277Z,22.30
2022-07-30T21:03:52.256Z,22.20
2022-07-30T21:06:25.147Z,22.20
2022-07-30T21:08:58.378Z,22.20
2022-07-30T21:11:31.725Z,24.70
2022-07-30T21:14:12.098Z,22.20
2022-07-30T21:16:54.344Z,22.30
2022-07-30T21:19:29.053Z,23.40
2022-07-30T21:22:02.113Z,22.10
2022-07-30T21:24:34.263Z,24.50
2022-07-30T21:27:07.562Z,22.00
2022-07-30T21:29:39.558Z,22.00
2022-07-30T21:32:12.297Z,25.20
2022-07-30T21:34:47.247Z,23.50
2022-07-30T21:37:19.602Z,21.90
2022-07-30T21:39:52.186Z,22.00
2022-07-30T21:42:29.403Z,21.90
2022-07-30T21:45:03.255Z,21.90
2022-07-30T21:47:35.099Z,21.80
2022-07-30T21:50:07.958Z,23.20
2022-07-30T21:52:41.772Z,21.70
2022-07-30T21:57:47.444Z,21.60
2022-07-30T22:00:30.607Z,23.90
2022-07-30T22:03:03.435Z,21.20
2022-07-30T22:05:51.575Z,21.10
2022-07-30T22:08:26.119Z,21.10
2022-07-30T22:10:58.414Z,21.40
2022-07-30T22:13:31.132Z,21.40
2022-07-30T22:16:04.887Z,21.30
2022-07-30T22:18:38.424Z,21.30
2022-07-30T22:21:11.264Z,21.30
2022-07-30T22:23:54.797Z,23.70
2022-07-30T22:26:30.856Z,21.60
2022-07-30T22:29:05.236Z,21.00
2022-07-30T22:31:39.588Z,21.00
2022-07-30T22:34:12.839Z,22.20
2022-07-30T22:36:48.766Z,23.30
2022-07-30T22:39:21.829Z,20.80
2022-07-30T22:41:54.379Z,20.50
2022-07-30T22:44:27.046Z,20.60
2022-07-30T22:46:59.342Z,20.50
2022-07-30T22:49:45.980Z,20.40
2022-07-30T22:52:28.028Z,20.40
2022-07-30T22:55:08.990Z,20.30
2022-07-30T22:57:44.194Z,20.80
2022-07-30T23:00:27.534Z,20.30
2022-07-30T23:03:01.246Z,21.70
2022-07-30T23:05:35.213Z,20.50
2022-07-30T23:08:08.147Z,20.60
2022-07-30T23:10:39.862Z,21.10
2022-07-30T23:13:13.123Z,20.10
2022-07-30T23:15:45.397Z,21.20
2022-07-30T23:18:17.108Z,20.50
2022-07-30T23:20:49.839Z,20.00
2022-07-30T23:23:22.176Z,19.90
2022-07-30T23:25:53.948Z,20.00
2022-07-30T23:28:26.931Z,22.80
2022-07-30T23:30:59.103Z,20.80
2022-07-30T23:33:32.541Z,19.80
2022-07-30T23:36:09.258Z,19.90
2022-07-30T23:38:41.898Z,19.80
2022-07-30T23:41:29.456Z,20.90
2022-07-30T23:44:03.012Z,21.50
2022-07-30T23:46:37.458Z,20.60
2022-07-30T23:49:09.365Z,20.30
2022-07-30T23:51:42.090Z,20.00
2022-07-30T23:54:13.853Z,20.00
2022-07-30T23:56:46.551Z,21.50
2022-07-30T23:59:18.359Z,19.80
